Cincinnati, Ohio
Traffic Map
Current Weather Conditions
Cincinnati, Ohio
Overcast
Overcast
79°
Feels Like: 82°
Wind Chill: 79° Ceiling: 4600
Heat Index: 82° Visibility: 10mi
Dew Point: 71° Wind: 9mph
Humidity: 77% Direction: 250° (WSW)
Pressure: 29.96in Gusts: 0mph
Raw Report DataKLUK 021853Z 25008KT 10SM FEW027 OVC046 26/22 A2996 RMK AO2 RAB1754E37 SLP141 P0001 T02610217
Traffic Incident Summary
Active as of:
Severity:
Category:
InformationThere was an issue retrieving the traffic information for this location. Please try a different location or try again shortly.
Advertisements
Track Severe Weather on mobile